createdAt,value
2022-07-31T00:04:17.796Z,101118.03
2022-07-31T00:09:52.706Z,101112.78
2022-07-31T00:14:41.132Z,101109.25
2022-07-31T00:19:42.772Z,101102.28
2022-07-31T00:24:44.676Z,101097.91
2022-07-31T00:29:46.368Z,101093.44
2022-07-31T00:34:48.044Z,101098.75
2022-07-31T00:39:49.736Z,101102.34
2022-07-31T00:44:51.523Z,101096.22
2022-07-31T00:49:53.286Z,101104.25
2022-07-31T00:54:54.959Z,101110.53
2022-07-31T00:59:56.665Z,101109.69
2022-07-31T01:04:58.333Z,101114.22
2022-07-31T01:10:01.024Z,101116.91
2022-07-31T01:15:04.864Z,101124.97
2022-07-31T01:20:08.543Z,101128.53
2022-07-31T01:25:35.091Z,101131.31
2022-07-31T01:31:26.091Z,101129.59
2022-07-31T01:36:34.612Z,101128.75
2022-07-31T01:41:40.436Z,101134.88
2022-07-31T01:46:42.431Z,101121.75
2022-07-31T01:51:45.445Z,101119.94
2022-07-31T01:56:47.195Z,101112.88
2022-07-31T02:01:48.986Z,101112.94
2022-07-31T02:06:52.503Z,101115.59
2022-07-31T02:11:54.918Z,101112.91
2022-07-31T02:16:59.419Z,101115.53
2022-07-31T02:22:18.609Z,101124.28
2022-07-31T02:27:54.000Z,101114.78
2022-07-31T02:32:47.885Z,101108.59
2022-07-31T02:37:50.602Z,101111.28
2022-07-31T02:42:52.776Z,101110.44
2022-07-31T02:47:54.596Z,101107.91
2022-07-31T02:52:56.357Z,101100.88
2022-07-31T02:57:58.179Z,101105.25
2022-07-31T03:03:00.103Z,101094.66
2022-07-31T03:08:01.793Z,101099.09
2022-07-31T03:13:03.765Z,101096.50
2022-07-31T03:18:08.366Z,101100.94
2022-07-31T03:23:15.178Z,101099.16
2022-07-31T03:28:25.967Z,101098.31
2022-07-31T03:33:28.227Z,101107.19
2022-07-31T03:38:38.274Z,101100.19
2022-07-31T03:43:48.472Z,101084.31
2022-07-31T03:48:53.393Z,101081.69
2022-07-31T03:53:56.560Z,101077.31
2022-07-31T03:59:17.353Z,101080.03
2022-07-31T04:04:19.358Z,101075.63
2022-07-31T04:09:31.415Z,101080.03
2022-07-31T04:14:33.830Z,101081.81
2022-07-31T04:19:35.708Z,101080.03
2022-07-31T04:24:37.573Z,101093.22
2022-07-31T04:29:58.072Z,101095.88
2022-07-31T04:34:59.794Z,101093.22
2022-07-31T04:40:01.507Z,101086.16
2022-07-31T04:45:03.592Z,101094.09
2022-07-31T04:50:05.973Z,101092.38
2022-07-31T04:55:07.969Z,101098.50
2022-07-31T05:00:10.396Z,101094.09
2022-07-31T05:05:12.136Z,101099.38
2022-07-31T05:10:34.694Z,101098.47
2022-07-31T05:15:36.913Z,101105.34
2022-07-31T05:20:39.572Z,101109.63
2022-07-31T05:26:01.873Z,101110.38
2022-07-31T05:31:04.149Z,101114.59
2022-07-31T05:36:06.398Z,101110.94
2022-07-31T05:41:09.044Z,101114.28
2022-07-31T05:46:31.032Z,101110.66
2022-07-31T05:51:32.835Z,101095.66
2022-07-31T05:56:34.716Z,101092.84
2022-07-31T06:01:36.842Z,101084.81
2022-07-31T06:06:40.331Z,101082.03
2022-07-31T06:11:42.002Z,101090.75
2022-07-31T06:16:45.453Z,101092.16
2022-07-31T06:21:47.128Z,101097.25
2022-07-31T06:26:52.322Z,101097.19
2022-07-31T06:31:54.842Z,101104.84
2022-07-31T06:36:56.980Z,101106.50
2022-07-31T06:41:58.997Z,101098.34
2022-07-31T06:47:00.744Z,101095.47
2022-07-31T06:52:25.748Z,101094.25
2022-07-31T06:57:28.206Z,101096.56
2022-07-31T07:02:29.923Z,101094.59
2022-07-31T07:07:32.268Z,101093.44
2022-07-31T07:12:35.798Z,101089.72
2022-07-31T07:17:37.622Z,101092.84
2022-07-31T07:22:45.946Z,101086.19
2022-07-31T07:27:53.783Z,101084.19
2022-07-31T07:32:56.658Z,101084.69
2022-07-31T07:37:58.441Z,101080.16
2022-07-31T07:43:03.154Z,101077.59
2022-07-31T07:48:07.513Z,101069.66
2022-07-31T07:53:36.827Z,101070.94
2022-07-31T07:58:56.575Z,101074.03
2022-07-31T08:04:16.776Z,101064.41
2022-07-31T08:09:21.064Z,101068.28
2022-07-31T08:14:40.852Z,101071.00
2022-07-31T08:20:21.185Z,101072.59
2022-07-31T08:25:24.060Z,101064.59
2022-07-31T08:30:32.951Z,101062.56
2022-07-31T08:35:34.932Z,101063.16
2022-07-31T08:40:43.161Z,101056.72
2022-07-31T08:45:46.061Z,101070.22
2022-07-31T08:50:59.127Z,101063.44
2022-07-31T08:56:39.166Z,101057.69
2022-07-31T09:01:40.989Z,101051.00
2022-07-31T09:06:42.784Z,101045.31
2022-07-31T09:11:50.835Z,101043.81
2022-07-31T09:17:31.771Z,101029.91
2022-07-31T09:22:33.886Z,101027.50
2022-07-31T09:27:38.600Z,101018.94
2022-07-31T09:32:40.726Z,101024.34
2022-07-31T09:37:47.446Z,101019.69
2022-07-31T09:43:19.782Z,101009.31
2022-07-31T09:48:26.650Z,101005.03
2022-07-31T09:53:45.378Z,100999.09
2022-07-31T09:59:08.781Z,100997.44
2022-07-31T10:04:13.569Z,100990.19
2022-07-31T10:09:15.609Z,100984.00
2022-07-31T10:14:35.749Z,100987.56
2022-07-31T10:19:38.561Z,100970.47
2022-07-31T10:24:54.384Z,100969.63
2022-07-31T10:29:56.547Z,100962.44
2022-07-31T10:34:58.828Z,100958.97
2022-07-31T10:40:35.265Z,100957.81
2022-07-31T10:45:52.135Z,100951.06
2022-07-31T10:51:17.004Z,100927.81
2022-07-31T10:56:43.445Z,100934.34
2022-07-31T11:02:10.941Z,100926.75
2022-07-31T11:07:30.332Z,100927.34
2022-07-31T11:12:40.984Z,100922.00
2022-07-31T11:18:23.315Z,100919.44
2022-07-31T11:23:37.949Z,100906.00
2022-07-31T11:28:39.610Z,100885.66
2022-07-31T11:33:46.155Z,100886.38
2022-07-31T11:38:49.787Z,100875.63
2022-07-31T11:43:51.667Z,100868.81
2022-07-31T11:48:56.964Z,100867.06
2022-07-31T11:53:59.179Z,100864.34
2022-07-31T11:59:00.860Z,100864.25
2022-07-31T12:04:09.234Z,100858.03
2022-07-31T12:10:02.277Z,100848.91
2022-07-31T12:14:37.929Z,100839.31
2022-07-31T12:19:39.642Z,100831.53
2022-07-31T12:24:41.361Z,100829.31
2022-07-31T12:29:43.060Z,100811.16
2022-07-31T12:34:45.441Z,100813.28
2022-07-31T12:39:53.904Z,100801.50
2022-07-31T12:45:19.152Z,100803.69
2022-07-31T12:50:22.362Z,100796.91
2022-07-31T12:55:24.262Z,100790.00
2022-07-31T13:00:26.620Z,100789.22
2022-07-31T13:05:29.428Z,100784.69
2022-07-31T13:10:32.331Z,100769.09
2022-07-31T13:15:34.304Z,100767.19
2022-07-31T13:20:35.965Z,100758.22
2022-07-31T13:25:37.625Z,100761.47
2022-07-31T13:30:39.275Z,100740.31
2022-07-31T13:35:41.080Z,100743.88
2022-07-31T13:41:01.206Z,100736.41
2022-07-31T13:46:04.020Z,100722.94
2022-07-31T13:51:05.956Z,100720.09
2022-07-31T13:56:07.646Z,100712.94
2022-07-31T14:01:09.368Z,100716.34
2022-07-31T14:06:11.080Z,100707.41
2022-07-31T14:11:13.838Z,100710.91
2022-07-31T14:16:16.928Z,100706.94
2022-07-31T14:21:18.594Z,100709.44
2022-07-31T14:26:20.248Z,100700.91
2022-07-31T14:31:21.939Z,100697.53
2022-07-31T14:36:23.684Z,100697.66
2022-07-31T14:41:25.333Z,100696.13
2022-07-31T14:46:26.993Z,100697.59
2022-07-31T14:51:29.132Z,100694.06
2022-07-31T14:56:58.535Z,100696.50
2022-07-31T15:01:52.756Z,100701.63
2022-07-31T15:07:07.756Z,100717.25
2022-07-31T15:12:16.922Z,100706.53
2022-07-31T15:17:18.643Z,100701.28
2022-07-31T15:22:20.319Z,100702.94
2022-07-31T15:27:22.243Z,100696.34
2022-07-31T15:32:24.116Z,100686.75
2022-07-31T15:37:25.770Z,100692.72
2022-07-31T15:42:27.434Z,100684.34
2022-07-31T15:47:29.109Z,100688.78
2022-07-31T15:52:30.761Z,100681.34
2022-07-31T15:57:32.400Z,100678.09
2022-07-31T16:02:34.053Z,100677.75
2022-07-31T16:08:29.030Z,100680.50
2022-07-31T16:12:57.545Z,100677.06
2022-07-31T16:17:59.213Z,100671.03
2022-07-31T16:23:01.539Z,100664.97
2022-07-31T16:28:04.145Z,100664.53
2022-07-31T16:33:05.861Z,100652.38
2022-07-31T16:38:08.051Z,100654.53
2022-07-31T16:43:47.393Z,100654.75
2022-07-31T16:48:31.332Z,100662.66
2022-07-31T16:54:10.755Z,100672.28
2022-07-31T16:58:55.529Z,100673.34
2022-07-31T17:04:01.401Z,100666.09
2022-07-31T17:09:16.805Z,100679.53
2022-07-31T17:14:23.659Z,100697.34
2022-07-31T17:19:36.270Z,100700.78
2022-07-31T17:24:44.435Z,100710.03
2022-07-31T17:29:46.157Z,100722.09
2022-07-31T17:34:49.415Z,100736.94
2022-07-31T17:39:55.108Z,100773.19
2022-07-31T17:45:01.709Z,100767.81
2022-07-31T17:50:03.664Z,100773.06
2022-07-31T17:55:06.562Z,100778.88
2022-07-31T18:00:09.859Z,100788.41
2022-07-31T18:05:11.574Z,100781.69
2022-07-31T18:10:13.255Z,100785.25
2022-07-31T18:15:15.092Z,100770.78
2022-07-31T18:20:21.475Z,100769.38
2022-07-31T18:25:23.142Z,100750.03
2022-07-31T18:30:30.365Z,100753.97
2022-07-31T18:35:34.544Z,100751.47
2022-07-31T18:40:36.197Z,100749.91
2022-07-31T18:45:41.475Z,100751.56
2022-07-31T18:50:58.985Z,100748.88
2022-07-31T18:56:05.133Z,100735.59
2022-07-31T19:01:06.816Z,100737.19
2022-07-31T19:06:08.563Z,100733.44
2022-07-31T19:11:11.682Z,100726.25
2022-07-31T19:16:13.376Z,100732.44
2022-07-31T19:21:38.510Z,100729.72
2022-07-31T19:26:40.038Z,100728.44
2022-07-31T19:31:41.774Z,100725.78
2022-07-31T19:36:43.481Z,100727.56
2022-07-31T19:42:10.654Z,100718.81
2022-07-31T19:47:06.833Z,100723.97
2022-07-31T19:52:08.581Z,100716.13
2022-07-31T19:57:10.949Z,100713.09
2022-07-31T20:02:16.742Z,100709.59
2022-07-31T20:07:18.684Z,100703.56
2022-07-31T20:12:20.345Z,100710.47
2022-07-31T20:17:22.052Z,100711.38
2022-07-31T20:22:23.831Z,100693.78
2022-07-31T20:27:26.036Z,100691.78
2022-07-31T20:32:27.725Z,100692.56
2022-07-31T20:37:30.603Z,100683.66
2022-07-31T20:42:32.286Z,100684.50
2022-07-31T20:47:33.962Z,100695.13
2022-07-31T20:52:35.617Z,100701.50
2022-07-31T20:57:37.356Z,100697.06
2022-07-31T21:02:39.183Z,100693.66
2022-07-31T21:07:40.940Z,100693.88
2022-07-31T21:12:42.583Z,100685.16
2022-07-31T21:17:44.243Z,100683.47
2022-07-31T21:22:45.898Z,100679.25
2022-07-31T21:27:47.607Z,100683.91
2022-07-31T21:32:49.463Z,100676.88
2022-07-31T21:37:51.387Z,100671.63
2022-07-31T21:42:58.595Z,100670.94
2022-07-31T21:48:01.936Z,100672.72
2022-07-31T21:53:03.629Z,100678.81
2022-07-31T21:58:05.761Z,100668.19
2022-07-31T22:03:07.477Z,100672.56
2022-07-31T22:08:09.130Z,100679.78
2022-07-31T22:13:10.811Z,100678.06
2022-07-31T22:18:12.690Z,100678.94
2022-07-31T22:23:14.558Z,100680.72
2022-07-31T22:28:20.357Z,100671.09
2022-07-31T22:33:22.100Z,100679.09
2022-07-31T22:38:25.058Z,100670.31
2022-07-31T22:44:11.137Z,100671.16
2022-07-31T22:48:49.049Z,100676.38
2022-07-31T22:53:52.057Z,100671.88
2022-07-31T22:58:53.755Z,100678.19
2022-07-31T23:03:55.460Z,100680.88
2022-07-31T23:08:57.177Z,100680.81
2022-07-31T23:13:58.912Z,100682.44
2022-07-31T23:19:00.591Z,100687.50
2022-07-31T23:24:02.283Z,100681.41
2022-07-31T23:29:03.957Z,100683.16
2022-07-31T23:34:05.749Z,100681.34
2022-07-31T23:39:08.973Z,100685.59
2022-07-31T23:44:10.855Z,100687.06
2022-07-31T23:49:12.659Z,100679.91
2022-07-31T23:54:15.719Z,100673.63
2022-07-31T23:59:17.401Z,100672.69
